createdAt,value
2022-10-11T00:01:35.001Z,91.95
2022-10-11T00:04:01.563Z,91.89
2022-10-11T00:06:28.067Z,92.08
2022-10-11T00:08:54.449Z,91.90
2022-10-11T00:11:20.777Z,91.82
2022-10-11T00:13:47.127Z,91.76
2022-10-11T00:16:15.293Z,91.76
2022-10-11T00:18:42.052Z,91.86
2022-10-11T00:21:13.076Z,92.14
2022-10-11T00:23:39.793Z,91.84
2022-10-11T00:26:09.464Z,91.72
2022-10-11T00:28:36.936Z,91.73
2022-10-11T00:31:08.244Z,91.76
2022-10-11T00:33:35.254Z,91.43
2022-10-11T00:36:02.391Z,91.67
2022-10-11T00:38:31.879Z,91.97
2022-10-11T00:40:59.001Z,91.96
2022-10-11T00:43:32.020Z,92.27
2022-10-11T00:45:58.318Z,92.05
2022-10-11T00:48:31.745Z,92.01
2022-10-11T00:51:01.069Z,91.94
2022-10-11T00:53:30.385Z,92.14
2022-10-11T00:56:12.045Z,92.35
2022-10-11T00:58:38.855Z,92.24
2022-10-11T01:01:05.661Z,92.16
2022-10-11T01:03:35.189Z,92.45
2022-10-11T01:06:03.441Z,92.36
2022-10-11T01:08:31.372Z,92.35
2022-10-11T01:10:58.350Z,92.38
2022-10-11T01:14:03.813Z,92.64
2022-10-11T01:16:42.448Z,92.34
2022-10-11T01:19:22.404Z,92.74
2022-10-11T01:21:58.665Z,92.83
2022-10-11T01:24:52.654Z,93.09
2022-10-11T01:27:40.350Z,93.17
2022-10-11T01:30:21.843Z,93.04
2022-10-11T01:33:12.941Z,93.17
2022-10-11T01:36:02.538Z,92.96
2022-10-11T01:38:37.711Z,92.49
2022-10-11T01:41:27.260Z,92.51
2022-10-11T01:43:58.512Z,92.59
2022-10-11T01:46:25.325Z,92.22
2022-10-11T01:48:57.039Z,92.38
2022-10-11T01:51:29.814Z,92.35
2022-10-11T01:54:08.785Z,92.31
2022-10-11T01:56:57.008Z,92.38
2022-10-11T01:59:33.428Z,92.57
2022-10-11T02:02:23.779Z,92.46
2022-10-11T02:05:09.084Z,92.31
2022-10-11T02:07:56.546Z,92.30
2022-10-11T02:10:35.880Z,92.37
2022-10-11T02:13:09.320Z,92.49
2022-10-11T02:15:40.597Z,92.27
2022-10-11T02:18:11.566Z,92.59
2022-10-11T02:20:41.348Z,92.31
2022-10-11T02:23:17.084Z,92.34
2022-10-11T02:25:45.633Z,92.23
2022-10-11T02:28:20.091Z,92.42
2022-10-11T02:30:48.129Z,92.45
2022-10-11T02:33:18.552Z,92.00
2022-10-11T02:35:49.328Z,92.32
2022-10-11T02:38:22.760Z,92.33
2022-10-11T02:40:57.716Z,92.39
2022-10-11T02:43:32.313Z,92.48
2022-10-11T02:46:03.208Z,92.63
2022-10-11T02:48:30.602Z,92.51
2022-10-11T02:50:57.992Z,92.62
2022-10-11T02:53:25.976Z,92.64
2022-10-11T02:55:54.692Z,92.72
2022-10-11T02:58:22.797Z,92.43
2022-10-11T03:00:49.292Z,92.72
2022-10-11T03:03:15.668Z,92.62
2022-10-11T03:05:42.068Z,92.90
2022-10-11T03:08:09.904Z,92.62
2022-10-11T03:10:36.869Z,92.31
2022-10-11T03:13:04.054Z,92.71
2022-10-11T03:15:30.712Z,92.91
2022-10-11T03:17:57.117Z,92.74
2022-10-11T03:20:24.986Z,92.87
2022-10-11T03:22:51.361Z,92.49
2022-10-11T03:25:18.215Z,92.62
2022-10-11T03:27:44.637Z,92.48
2022-10-11T03:30:15.077Z,92.63
2022-10-11T03:32:44.374Z,92.45
2022-10-11T03:35:10.776Z,92.67
2022-10-11T03:37:37.178Z,92.53
2022-10-11T03:40:05.327Z,92.47
2022-10-11T03:42:31.689Z,92.68
2022-10-11T03:44:59.699Z,92.46
2022-10-11T03:47:26.056Z,92.66
2022-10-11T03:49:52.441Z,92.87
2022-10-11T03:52:18.802Z,92.88
2022-10-11T03:54:45.160Z,92.59
2022-10-11T03:57:11.505Z,92.45
2022-10-11T03:59:37.843Z,92.42
2022-10-11T04:02:04.552Z,92.46
2022-10-11T04:04:31.048Z,92.33
2022-10-11T04:06:57.411Z,92.32
2022-10-11T04:09:23.745Z,92.22
2022-10-11T04:11:50.098Z,92.45
2022-10-11T04:14:16.958Z,92.44
2022-10-11T04:16:43.320Z,92.04
2022-10-11T04:19:09.806Z,92.25
2022-10-11T04:21:36.163Z,92.22
2022-10-11T04:24:02.572Z,92.31
2022-10-11T04:26:29.094Z,92.20
2022-10-11T04:28:55.538Z,92.34
2022-10-11T04:31:22.374Z,92.49
2022-10-11T04:33:48.710Z,92.44
2022-10-11T04:36:15.105Z,92.53
2022-10-11T04:38:41.736Z,92.32
2022-10-11T04:41:09.205Z,92.47
2022-10-11T04:43:36.190Z,92.06
2022-10-11T04:46:03.429Z,92.21
2022-10-11T04:48:31.017Z,92.25
2022-10-11T04:50:57.423Z,92.00
2022-10-11T04:53:24.260Z,92.18
2022-10-11T04:56:00.820Z,92.32
2022-10-11T04:58:31.685Z,92.01
2022-10-11T05:00:58.601Z,92.51
2022-10-11T05:03:26.364Z,92.28
2022-10-11T05:05:53.218Z,92.30
2022-10-11T05:08:19.975Z,92.33
2022-10-11T05:11:01.598Z,92.30
2022-10-11T05:13:29.659Z,92.44
2022-10-11T05:15:56.477Z,92.52
2022-10-11T05:18:23.916Z,92.52
2022-10-11T05:21:09.022Z,92.55
2022-10-11T05:23:37.061Z,92.70
2022-10-11T05:26:04.411Z,92.66
2022-10-11T05:28:31.760Z,92.86
2022-10-11T05:30:58.958Z,92.52
2022-10-11T05:33:25.466Z,92.40
2022-10-11T05:35:52.106Z,92.51
2022-10-11T05:38:24.203Z,92.68
2022-10-11T05:40:51.238Z,92.59
2022-10-11T05:43:18.502Z,92.78
2022-10-11T05:45:45.348Z,92.78
2022-10-11T05:48:12.766Z,92.98
2022-10-11T05:50:39.510Z,92.78
2022-10-11T05:53:06.835Z,92.98
2022-10-11T05:55:37.929Z,92.76
2022-10-11T05:58:06.293Z,93.01
2022-10-11T06:00:35.261Z,92.70
2022-10-11T06:03:01.607Z,92.57
2022-10-11T06:05:28.138Z,92.56
2022-10-11T06:07:54.620Z,92.69
2022-10-11T06:10:20.943Z,93.23
2022-10-11T06:12:47.267Z,93.01
2022-10-11T06:15:14.463Z,92.99
2022-10-11T06:17:41.042Z,92.93
2022-10-11T06:20:07.846Z,93.10
2022-10-11T06:22:34.235Z,93.08
2022-10-11T06:25:00.568Z,93.03
2022-10-11T06:27:27.328Z,93.12
2022-10-11T06:29:54.140Z,93.24
2022-10-11T06:32:20.575Z,93.15
2022-10-11T06:34:46.980Z,93.04
2022-10-11T06:37:13.441Z,93.43
2022-10-11T06:39:39.858Z,93.34
2022-10-11T06:42:06.387Z,93.45
2022-10-11T06:44:32.761Z,93.57
2022-10-11T06:46:59.097Z,93.96
2022-10-11T06:49:25.710Z,93.75
2022-10-11T06:51:52.051Z,93.55
2022-10-11T06:54:18.393Z,93.84
2022-10-11T06:56:45.659Z,93.93
2022-10-11T06:59:13.354Z,93.84
2022-10-11T07:01:39.741Z,93.88
2022-10-11T07:04:06.136Z,93.62
2022-10-11T07:06:38.813Z,94.00
2022-10-11T07:09:07.013Z,93.71
2022-10-11T07:11:33.900Z,93.84
2022-10-11T07:14:04.244Z,93.86
2022-10-11T07:16:30.632Z,93.68
2022-10-11T07:19:01.896Z,93.72
2022-10-11T07:21:29.958Z,93.45
2022-10-11T07:23:56.347Z,93.43
2022-10-11T07:26:22.700Z,93.57
2022-10-11T07:28:49.446Z,93.58
2022-10-11T07:31:19.813Z,93.57
2022-10-11T07:33:46.413Z,93.32
2022-10-11T07:36:13.343Z,93.50
2022-10-11T07:38:41.470Z,93.46
2022-10-11T07:41:09.275Z,93.38
2022-10-11T07:43:36.781Z,93.56
2022-10-11T07:46:04.927Z,93.64
2022-10-11T07:48:34.133Z,93.77
2022-10-11T07:51:07.921Z,93.70
2022-10-11T07:53:48.659Z,93.88
2022-10-11T07:56:19.732Z,93.62
2022-10-11T07:58:50.273Z,93.52
2022-10-11T08:01:17.321Z,93.29
2022-10-11T08:03:43.849Z,93.72
2022-10-11T08:06:13.380Z,93.50
2022-10-11T08:08:39.995Z,93.22
2022-10-11T08:11:06.642Z,93.54
2022-10-11T08:13:33.717Z,93.65
2022-10-11T08:16:00.553Z,93.61
2022-10-11T08:18:27.214Z,93.53
2022-10-11T08:20:53.784Z,93.46
2022-10-11T08:23:20.358Z,93.46
2022-10-11T08:25:47.827Z,93.68
2022-10-11T08:28:17.353Z,93.45
2022-10-11T08:30:52.273Z,93.39
2022-10-11T08:33:19.053Z,93.56
2022-10-11T08:35:46.073Z,93.39
2022-10-11T08:38:12.651Z,92.89
2022-10-11T08:40:46.149Z,92.52
2022-10-11T08:43:27.922Z,92.53
2022-10-11T08:45:57.826Z,92.66
2022-10-11T08:48:35.240Z,91.90
2022-10-11T08:51:08.434Z,91.23
2022-10-11T08:53:57.905Z,90.67
2022-10-11T08:56:26.397Z,90.06
2022-10-11T08:59:08.862Z,89.56
2022-10-11T09:01:35.992Z,89.17
2022-10-11T09:04:03.545Z,88.50
2022-10-11T09:07:13.057Z,87.80
2022-10-11T09:09:49.651Z,87.15
2022-10-11T09:12:46.693Z,86.02
2022-10-11T09:15:26.211Z,84.55
2022-10-11T09:18:01.622Z,82.64
2022-10-11T09:20:52.422Z,80.75
2022-10-11T09:23:52.660Z,80.63
2022-10-11T09:26:31.090Z,78.95
2022-10-11T09:29:19.337Z,76.61
2022-10-11T09:31:49.311Z,75.48
2022-10-11T09:34:16.111Z,75.70
2022-10-11T09:37:03.433Z,75.08
2022-10-11T09:39:35.369Z,74.99
2022-10-11T09:42:03.818Z,74.33
2022-10-11T09:44:37.726Z,71.67
2022-10-11T09:47:06.334Z,72.20
2022-10-11T09:49:40.746Z,72.25
2022-10-11T09:52:15.885Z,72.05
2022-10-11T09:54:58.110Z,71.62
2022-10-11T09:57:31.034Z,71.37
2022-10-11T10:00:24.374Z,69.14
2022-10-11T10:02:53.330Z,68.36
2022-10-11T10:05:21.868Z,68.56
2022-10-11T10:08:04.757Z,67.89
2022-10-11T10:10:43.746Z,67.32
2022-10-11T10:13:19.570Z,67.44
2022-10-11T10:15:48.062Z,67.06
2022-10-11T10:18:42.406Z,67.26
2022-10-11T10:21:13.144Z,65.98
2022-10-11T10:23:39.767Z,64.84
2022-10-11T10:26:13.435Z,65.66
2022-10-11T10:29:22.625Z,65.69
2022-10-11T10:32:12.734Z,63.90
2022-10-11T10:34:38.267Z,62.72
2022-10-11T10:37:26.635Z,63.19
2022-10-11T10:40:14.242Z,61.66
2022-10-11T10:42:40.660Z,61.57
2022-10-11T10:45:20.072Z,61.87
2022-10-11T10:48:03.484Z,62.31
2022-10-11T10:50:49.946Z,62.59
2022-10-11T10:53:25.600Z,61.34
2022-10-11T10:56:01.521Z,60.81
2022-10-11T10:58:39.967Z,59.28
2022-10-11T11:01:17.754Z,60.30
2022-10-11T11:03:47.901Z,60.04
2022-10-11T11:06:34.150Z,59.13
2022-10-11T11:09:02.792Z,60.07
2022-10-11T11:12:02.518Z,60.77
2022-10-11T11:14:50.506Z,59.48
2022-10-11T11:17:52.186Z,58.95
2022-10-11T11:20:27.339Z,60.25
2022-10-11T11:23:22.066Z,58.27
2022-10-11T11:26:00.481Z,59.73
2022-10-11T11:28:45.219Z,58.60
2022-10-11T11:31:31.670Z,57.99
2022-10-11T11:34:28.840Z,57.37
2022-10-11T11:37:01.942Z,56.68
2022-10-11T11:39:36.554Z,57.80
2022-10-11T11:42:13.358Z,58.67
2022-10-11T11:44:44.755Z,59.21
2022-10-11T11:47:50.501Z,59.32
2022-10-11T11:50:23.249Z,58.11
2022-10-11T11:52:53.993Z,58.61
2022-10-11T11:55:49.388Z,59.05
2022-10-11T11:58:44.233Z,59.41
2022-10-11T12:01:32.147Z,59.02
2022-10-11T12:04:20.509Z,58.34
2022-10-11T12:07:15.465Z,57.55
2022-10-11T12:09:46.432Z,56.73
2022-10-11T12:12:35.357Z,56.71
2022-10-11T12:15:53.760Z,56.48
2022-10-11T12:18:20.781Z,56.48
2022-10-11T12:21:00.430Z,56.39
2022-10-11T12:23:29.740Z,55.64
2022-10-11T12:26:25.473Z,54.02
2022-10-11T12:29:06.154Z,54.13
2022-10-11T12:31:36.871Z,53.88
2022-10-11T12:34:09.183Z,53.84
2022-10-11T12:36:37.127Z,52.40
2022-10-11T12:39:18.498Z,53.96
2022-10-11T12:41:47.665Z,54.59
2022-10-11T12:44:27.512Z,53.93
2022-10-11T12:46:53.888Z,54.68
2022-10-11T12:49:51.534Z,54.92
2022-10-11T12:52:17.820Z,56.06
2022-10-11T12:55:12.994Z,56.41
2022-10-11T12:57:59.025Z,56.34
2022-10-11T13:00:32.453Z,55.07
2022-10-11T13:03:01.933Z,55.07
2022-10-11T13:05:36.387Z,53.23
2022-10-11T13:08:05.418Z,51.42
2022-10-11T13:10:41.624Z,51.94
2022-10-11T13:13:15.412Z,51.22
2022-10-11T13:15:44.026Z,50.99
2022-10-11T13:18:16.696Z,50.97
2022-10-11T13:20:43.074Z,51.77
2022-10-11T13:23:22.911Z,53.46
2022-10-11T13:25:50.471Z,52.88
2022-10-11T13:28:18.571Z,53.87
2022-10-11T13:30:47.755Z,53.86
2022-10-11T13:33:21.281Z,53.24
2022-10-11T13:35:48.247Z,53.67
2022-10-11T13:38:22.766Z,53.08
2022-10-11T13:40:51.191Z,53.93
2022-10-11T13:43:22.226Z,54.21
2022-10-11T13:45:48.729Z,54.26
2022-10-11T13:48:16.651Z,55.50
2022-10-11T13:50:46.824Z,54.33
2022-10-11T13:53:13.173Z,54.91
2022-10-11T13:55:42.363Z,56.42
2022-10-11T13:58:18.506Z,54.25
2022-10-11T14:00:58.253Z,55.32
2022-10-11T14:03:37.244Z,54.94
2022-10-11T14:06:04.187Z,54.93
2022-10-11T14:08:37.629Z,54.19
2022-10-11T14:11:06.821Z,53.29
2022-10-11T14:13:40.409Z,52.21
2022-10-11T14:16:28.650Z,50.69
2022-10-11T14:18:58.083Z,52.10
2022-10-11T14:21:28.453Z,51.59
2022-10-11T14:24:02.637Z,52.22
2022-10-11T14:26:35.835Z,51.61
2022-10-11T14:29:12.487Z,52.10
2022-10-11T14:31:41.963Z,52.95
2022-10-11T14:34:16.142Z,51.95
2022-10-11T14:36:42.509Z,52.02
2022-10-11T14:39:22.240Z,52.94
2022-10-11T14:41:51.573Z,52.25
2022-10-11T14:44:19.070Z,53.21
2022-10-11T14:46:46.520Z,53.24
2022-10-11T14:49:18.952Z,52.83
2022-10-11T14:51:47.665Z,52.88
2022-10-11T14:54:15.775Z,53.71
2022-10-11T14:56:42.169Z,54.08
2022-10-11T14:59:14.764Z,54.83
2022-10-11T15:01:41.295Z,54.91
2022-10-11T15:04:07.685Z,55.55
2022-10-11T15:06:37.836Z,56.36
2022-10-11T15:09:06.093Z,56.40
2022-10-11T15:11:38.010Z,56.68
2022-10-11T15:14:07.343Z,57.32
2022-10-11T15:16:34.295Z,57.81
2022-10-11T15:19:01.064Z,58.70
2022-10-11T15:21:29.250Z,59.09
2022-10-11T15:23:56.099Z,59.43
2022-10-11T15:26:27.632Z,59.94
2022-10-11T15:28:56.033Z,60.14
2022-10-11T15:31:23.705Z,60.34
2022-10-11T15:33:50.080Z,60.92
2022-10-11T15:36:21.521Z,61.26
2022-10-11T15:38:48.787Z,61.65
2022-10-11T15:41:18.730Z,62.04
2022-10-11T15:43:46.254Z,62.02
2022-10-11T15:46:15.914Z,62.18
2022-10-11T15:48:42.576Z,62.12
2022-10-11T15:51:09.130Z,62.21
2022-10-11T15:53:35.674Z,62.91
2022-10-11T15:56:06.419Z,63.34
2022-10-11T15:58:36.132Z,64.03
2022-10-11T16:01:09.406Z,64.25
2022-10-11T16:03:36.405Z,64.98
2022-10-11T16:06:05.582Z,65.79
2022-10-11T16:08:33.769Z,66.56
2022-10-11T16:11:00.318Z,66.30
2022-10-11T16:13:26.776Z,67.24
2022-10-11T16:15:53.194Z,67.62
2022-10-11T16:18:20.935Z,67.94
2022-10-11T16:20:49.976Z,68.50
2022-10-11T16:23:16.470Z,68.87
2022-10-11T16:25:43.265Z,69.70
2022-10-11T16:28:11.609Z,70.08
2022-10-11T16:30:39.796Z,70.46
2022-10-11T16:33:06.220Z,70.87
2022-10-11T16:35:32.933Z,71.01
2022-10-11T16:38:00.527Z,71.35
2022-10-11T16:40:28.175Z,71.71
2022-10-11T16:42:54.497Z,72.06
2022-10-11T16:45:20.982Z,72.54
2022-10-11T16:47:48.305Z,72.67
2022-10-11T16:50:14.723Z,73.50
2022-10-11T16:52:41.215Z,73.98
2022-10-11T16:55:07.947Z,74.48
2022-10-11T16:57:34.402Z,74.60
2022-10-11T17:00:00.798Z,74.96
2022-10-11T17:02:32.498Z,75.73
2022-10-11T17:04:59.181Z,75.74
2022-10-11T17:07:25.938Z,75.58
2022-10-11T17:09:52.327Z,76.01
2022-10-11T17:12:22.429Z,76.07
2022-10-11T17:14:50.123Z,76.39
2022-10-11T17:17:18.435Z,76.93
2022-10-11T17:19:45.578Z,77.22
2022-10-11T17:22:14.920Z,77.29
2022-10-11T17:24:41.552Z,77.29
2022-10-11T17:27:08.096Z,78.05
2022-10-11T17:29:36.209Z,78.32
2022-10-11T17:32:03.270Z,78.60
2022-10-11T17:34:29.689Z,79.03
2022-10-11T17:36:56.037Z,79.60
2022-10-11T17:39:23.868Z,79.99
2022-10-11T17:41:50.419Z,80.21
2022-10-11T17:44:18.545Z,80.22
2022-10-11T17:46:45.693Z,80.31
2022-10-11T17:49:13.919Z,80.45
2022-10-11T17:51:41.229Z,80.38
2022-10-11T17:54:12.276Z,80.17
2022-10-11T17:56:39.982Z,80.04
2022-10-11T17:59:07.322Z,80.32
2022-10-11T18:01:33.765Z,80.79
2022-10-11T18:04:03.156Z,81.12
2022-10-11T18:06:32.033Z,81.58
2022-10-11T18:09:02.938Z,82.04
2022-10-11T18:11:30.373Z,81.78
2022-10-11T18:13:56.970Z,82.05
2022-10-11T18:16:26.822Z,81.95
2022-10-11T18:18:54.792Z,82.15
2022-10-11T18:21:21.172Z,81.83
2022-10-11T18:23:47.656Z,81.77
2022-10-11T18:26:15.691Z,82.23
2022-10-11T18:28:43.546Z,82.33
2022-10-11T18:31:14.343Z,82.17
2022-10-11T18:33:41.269Z,81.78
2022-10-11T18:36:09.158Z,81.76
2022-10-11T18:38:38.024Z,81.86
2022-10-11T18:41:09.244Z,81.75
2022-10-11T18:43:36.407Z,82.22
2022-10-11T18:46:11.704Z,82.54
2022-10-11T18:48:46.398Z,83.00
2022-10-11T18:51:16.428Z,83.48
2022-10-11T18:53:42.807Z,83.71
2022-10-11T18:56:10.894Z,83.66
2022-10-11T18:58:40.118Z,83.75
2022-10-11T19:01:18.033Z,84.06
2022-10-11T19:03:46.044Z,83.82
2022-10-11T19:06:19.001Z,83.86
2022-10-11T19:09:13.710Z,83.83
2022-10-11T19:11:40.942Z,83.82
2022-10-11T19:14:14.505Z,83.66
2022-10-11T19:16:45.417Z,83.57
2022-10-11T19:19:12.352Z,83.80
2022-10-11T19:21:39.398Z,83.98
2022-10-11T19:24:05.959Z,84.28
2022-10-11T19:26:34.872Z,84.52
2022-10-11T19:29:07.720Z,84.14
2022-10-11T19:31:36.378Z,84.32
2022-10-11T19:34:03.479Z,84.11
2022-10-11T19:36:35.533Z,84.12
2022-10-11T19:39:04.835Z,84.22
2022-10-11T19:41:31.626Z,84.25
2022-10-11T19:43:58.211Z,83.98
2022-10-11T19:46:50.307Z,84.40
2022-10-11T19:49:25.070Z,84.42
2022-10-11T19:51:52.890Z,84.52
2022-10-11T19:54:19.687Z,84.58
2022-10-11T19:56:46.070Z,84.46
2022-10-11T19:59:12.945Z,84.29
2022-10-11T20:01:40.240Z,84.60
2022-10-11T20:04:18.799Z,84.42
2022-10-11T20:06:57.021Z,84.30
2022-10-11T20:09:29.564Z,84.34
2022-10-11T20:11:56.835Z,84.18
2022-10-11T20:14:23.340Z,84.62
2022-10-11T20:16:50.574Z,84.69
2022-10-11T20:19:18.344Z,84.26
2022-10-11T20:21:45.235Z,84.65
2022-10-11T20:24:11.793Z,84.56
2022-10-11T20:26:38.999Z,85.24
2022-10-11T20:29:05.589Z,84.78
2022-10-11T20:31:34.024Z,84.58
2022-10-11T20:34:04.144Z,84.76
2022-10-11T20:36:32.054Z,85.16
2022-10-11T20:39:00.260Z,84.95
2022-10-11T20:41:31.135Z,84.93
2022-10-11T20:44:00.318Z,85.24
2022-10-11T20:46:29.795Z,84.71
2022-10-11T20:49:01.888Z,84.78
2022-10-11T20:51:30.505Z,84.93
2022-10-11T20:53:57.894Z,84.81
2022-10-11T20:56:24.295Z,85.43
2022-10-11T20:58:52.579Z,85.48
2022-10-11T21:01:31.598Z,85.53
2022-10-11T21:03:59.592Z,85.69
2022-10-11T21:06:26.971Z,85.66
2022-10-11T21:09:01.661Z,85.40
2022-10-11T21:11:29.864Z,85.26
2022-10-11T21:13:57.811Z,85.42
2022-10-11T21:16:24.605Z,85.35
2022-10-11T21:18:52.421Z,85.19
2022-10-11T21:21:18.859Z,85.42
2022-10-11T21:23:45.205Z,85.41
2022-10-11T21:26:14.501Z,85.86
2022-10-11T21:28:41.211Z,85.65
2022-10-11T21:31:16.604Z,85.72
2022-10-11T21:33:43.963Z,85.62
2022-10-11T21:36:18.583Z,85.79
2022-10-11T21:38:45.285Z,85.63
2022-10-11T21:41:15.018Z,85.57
2022-10-11T21:43:41.708Z,86.36
2022-10-11T21:46:09.372Z,86.54
2022-10-11T21:48:35.728Z,86.91
2022-10-11T21:51:02.114Z,87.04
2022-10-11T21:53:29.807Z,86.73
2022-10-11T21:55:57.763Z,87.18
2022-10-11T21:58:24.181Z,86.81
2022-10-11T22:00:50.579Z,86.55
2022-10-11T22:03:16.990Z,86.65
2022-10-11T22:05:44.936Z,86.74
2022-10-11T22:08:12.534Z,86.97
2022-10-11T22:10:39.981Z,87.56
2022-10-11T22:13:06.357Z,87.62
2022-10-11T22:15:34.569Z,87.76
2022-10-11T22:18:01.345Z,87.61
2022-10-11T22:20:28.717Z,87.31
2022-10-11T22:22:55.139Z,87.29
2022-10-11T22:25:21.500Z,87.58
2022-10-11T22:27:47.837Z,87.73
2022-10-11T22:30:14.261Z,87.51
2022-10-11T22:32:42.894Z,87.90
2022-10-11T22:35:09.367Z,87.35
2022-10-11T22:37:35.938Z,87.22
2022-10-11T22:40:02.533Z,87.49
2022-10-11T22:42:30.255Z,87.29
2022-10-11T22:44:56.624Z,87.42
2022-10-11T22:47:23.074Z,87.41
2022-10-11T22:49:49.394Z,87.37
2022-10-11T22:52:15.738Z,87.39
2022-10-11T22:54:42.143Z,87.56
2022-10-11T22:57:08.612Z,87.45
2022-10-11T22:59:35.036Z,86.94
2022-10-11T23:02:01.376Z,87.12
2022-10-11T23:04:27.791Z,87.46
2022-10-11T23:06:54.158Z,87.43
2022-10-11T23:09:21.050Z,87.74
2022-10-11T23:11:47.378Z,87.78
2022-10-11T23:14:13.801Z,87.57
2022-10-11T23:16:40.134Z,87.76
2022-10-11T23:19:06.526Z,87.65
2022-10-11T23:21:32.843Z,87.57
2022-10-11T23:23:59.329Z,87.58
2022-10-11T23:26:25.905Z,87.87
2022-10-11T23:28:55.174Z,87.80
2022-10-11T23:31:21.939Z,87.47
2022-10-11T23:33:48.714Z,87.56
2022-10-11T23:36:17.275Z,87.55
2022-10-11T23:38:43.730Z,87.72
2022-10-11T23:41:10.623Z,87.56
2022-10-11T23:43:37.172Z,87.49
2022-10-11T23:46:03.605Z,87.33
2022-10-11T23:48:29.989Z,86.99
2022-10-11T23:50:56.331Z,86.70
2022-10-11T23:53:22.836Z,86.71
2022-10-11T23:55:49.209Z,86.70
2022-10-11T23:58:15.582Z,87.02
